Durban, South Africa
Current Conditions -  °F | °C
As of 6:00 AM on Friday 31 Oct 2014 (Local Time) from FALE Reporting Station
Overcast Overcast  
Wind Chill: 68°   Ceiling: 3500
Heat Index: 68°   Visibility: 6mi
Dew Point: 59°   Wind: 10mph
Humidity: 73%   Direction: 210°SSW
Pressure: 30.12"   Gusts: NA
Location:  29.87°S, 30.99°E
Report Text: FALE 310400Z 21009KT 9999 FEW020 OVC035 20/15 Q1020 NOSIG
Loading
Personal Weather Stations






























Interactive Weather Map
Tropical Storm Tracking
New forecast layout! Learn more

10-Day Weather Forecast

Advertisements
Track Severe Weather on mobile